Аэропорт: Магнитогорск. Магнитогорск

ICAO: USCM

METAR:
2020-08-09 22:30:00
USCM 092230Z 30003MPS 9999 BKN021CB 15/15 Q0992 R36/090060 TEMPO VRB16MPS 2000 TSRA SQ RMK QFE706
METAR:
Информация по данной станции не доступна